NJE869N LSMP-LIRP
Flight info
| Callsign | NJE869N |
|---|---|
| Flight time | 0h 55m |
| Altitude | 45000 |
| Route | FRIBU Z60 VADAR Z669 MILPA DCT KOGAS DCT MEDAM DCT NITAM DCT MOGBO DCT TIDKA L50 KONER |
| Aircraft | C750/M-SBDE3FGHRWXY/S |
Departure
| Time | 2026-05-07 08:40 |
|---|---|
| Airport | Payerne Air Base (LSMP) |
Arrival
| Time | 2026-05-07 09:35 |
|---|---|
| Airport | Pisa International Airport (LIRP) |
| Time | Latitude | Longitude | Altitude | Speed | Heading |
|---|---|---|---|---|---|
| 2026-05-07 08:05 | 46.85305 | 6.92814 | 1460 ft | 0 kts | 108° |
| 2026-05-07 08:35 | 46.85305 | 6.92818 | 1460 ft | 0 kts | 106° |
| 2026-05-07 08:35 | 46.85304 | 6.92819 | 1460 ft | 1 kts | 107° |
| 2026-05-07 08:35 | 46.85300 | 6.92829 | 1460 ft | 0 kts | 126° |
| 2026-05-07 08:36 | 46.85298 | 6.92832 | 1460 ft | 0 kts | 127° |
| 2026-05-07 08:37 | 46.85273 | 6.92838 | 1456 ft | 4 kts | 173° |
| 2026-05-07 08:37 | 46.85251 | 6.92846 | 1460 ft | 0 kts | 161° |
| 2026-05-07 08:37 | 46.85241 | 6.92851 | 1460 ft | 6 kts | 161° |
| 2026-05-07 08:38 | 46.85194 | 6.92875 | 1458 ft | 7 kts | 159° |
| 2026-05-07 08:38 | 46.85149 | 6.92853 | 1457 ft | 0 kts | 232° |
| 2026-05-07 08:39 | 46.84998 | 6.92600 | 1463 ft | 89 kts | 227° |
| 2026-05-07 08:39 | 46.84387 | 6.91618 | 1695 ft | 142 kts | 228° |
| 2026-05-07 08:40 | 46.83729 | 6.90517 | 2386 ft | 155 kts | 228° |
| 2026-05-07 08:40 | 46.82932 | 6.89236 | 2858 ft | 182 kts | 230° |
| 2026-05-07 08:40 | 46.81883 | 6.88148 | 3467 ft | 192 kts | 197° |
| 2026-05-07 08:40 | 46.80615 | 6.88014 | 4481 ft | 180 kts | 170° |
| 2026-05-07 08:41 | 46.79411 | 6.88549 | 5223 ft | 186 kts | 159° |
| 2026-05-07 08:41 | 46.78128 | 6.89145 | 5806 ft | 201 kts | 161° |
| 2026-05-07 08:41 | 46.76833 | 6.89990 | 6612 ft | 211 kts | 139° |
| 2026-05-07 08:41 | 46.76026 | 6.91894 | 7080 ft | 237 kts | 105° |
| 2026-05-07 08:42 | 46.75549 | 6.94300 | 7673 ft | 261 kts | 110° |
| 2026-05-07 08:42 | 46.74624 | 6.96636 | 8368 ft | 281 kts | 133° |
| 2026-05-07 08:42 | 46.72900 | 6.97934 | 9469 ft | 284 kts | 168° |
| 2026-05-07 08:42 | 46.70940 | 6.97633 | 10343 ft | 294 kts | 200° |
| 2026-05-07 08:43 | 46.69231 | 6.95826 | 10613 ft | 321 kts | 230° |
| 2026-05-07 08:43 | 46.68251 | 6.92783 | 10726 ft | 348 kts | 258° |
| 2026-05-07 08:43 | 46.68005 | 6.89254 | 11467 ft | 349 kts | 268° |
| 2026-05-07 08:43 | 46.67842 | 6.85683 | 12368 ft | 350 kts | 266° |
| 2026-05-07 08:44 | 46.67499 | 6.82183 | 13232 ft | 350 kts | 260° |
| 2026-05-07 08:44 | 46.66807 | 6.78776 | 14063 ft | 352 kts | 251° |
| 2026-05-07 08:44 | 46.65838 | 6.75486 | 14818 ft | 355 kts | 248° |
| 2026-05-07 08:44 | 46.64612 | 6.72349 | 15486 ft | 359 kts | 241° |
| 2026-05-07 08:45 | 46.63257 | 6.69282 | 16219 ft | 361 kts | 242° |
| 2026-05-07 08:45 | 46.61978 | 6.66131 | 16944 ft | 362 kts | 245° |
| 2026-05-07 08:45 | 46.60754 | 6.62918 | 17685 ft | 364 kts | 245° |
| 2026-05-07 08:45 | 46.59502 | 6.59764 | 18429 ft | 367 kts | 244° |
| 2026-05-07 08:46 | 46.58188 | 6.56569 | 19155 ft | 370 kts | 244° |
| 2026-05-07 08:46 | 46.56877 | 6.53337 | 19889 ft | 372 kts | 245° |
| 2026-05-07 08:46 | 46.55564 | 6.50043 | 20605 ft | 375 kts | 246° |
| 2026-05-07 08:46 | 46.54240 | 6.46744 | 21295 ft | 378 kts | 246° |
| 2026-05-07 08:47 | 46.52918 | 6.43489 | 21967 ft | 380 kts | 246° |
| 2026-05-07 08:47 | 46.51573 | 6.40169 | 22625 ft | 383 kts | 246° |
| 2026-05-07 08:47 | 46.50204 | 6.36782 | 23290 ft | 385 kts | 246° |
| 2026-05-07 08:47 | 46.48850 | 6.33436 | 23935 ft | 387 kts | 246° |
| 2026-05-07 08:48 | 46.47496 | 6.30101 | 24501 ft | 390 kts | 247° |
| 2026-05-07 08:48 | 46.46107 | 6.26685 | 25025 ft | 394 kts | 247° |
| 2026-05-07 08:48 | 46.44716 | 6.23263 | 25569 ft | 397 kts | 247° |
| 2026-05-07 08:48 | 46.43303 | 6.19791 | 26056 ft | 401 kts | 247° |
| 2026-05-07 08:49 | 46.41805 | 6.16327 | 26502 ft | 411 kts | 242° |
| 2026-05-07 08:49 | 46.39989 | 6.13110 | 27051 ft | 420 kts | 235° |
| 2026-05-07 08:49 | 46.37850 | 6.10175 | 27558 ft | 431 kts | 228° |
| 2026-05-07 08:49 | 46.35385 | 6.07596 | 28103 ft | 444 kts | 220° |
| 2026-05-07 08:50 | 46.32618 | 6.05471 | 28592 ft | 456 kts | 212° |
| 2026-05-07 08:50 | 46.29606 | 6.03891 | 29083 ft | 467 kts | 203° |
| 2026-05-07 08:50 | 46.26373 | 6.02927 | 29522 ft | 480 kts | 194° |
| 2026-05-07 08:50 | 46.23019 | 6.02659 | 29998 ft | 491 kts | 185° |
| 2026-05-07 08:51 | 46.19573 | 6.03137 | 30464 ft | 501 kts | 175° |
| 2026-05-07 08:51 | 46.16159 | 6.04398 | 30936 ft | 510 kts | 166° |
| 2026-05-07 08:51 | 46.12895 | 6.06439 | 31565 ft | 513 kts | 156° |
| 2026-05-07 08:51 | 46.09877 | 6.09181 | 32251 ft | 514 kts | 147° |
| 2026-05-07 08:52 | 46.06988 | 6.12186 | 32941 ft | 510 kts | 147° |
| 2026-05-07 08:52 | 46.04111 | 6.15157 | 33589 ft | 507 kts | 147° |
| 2026-05-07 08:52 | 46.01245 | 6.18105 | 34237 ft | 505 kts | 147° |
| 2026-05-07 08:52 | 45.98396 | 6.21046 | 34834 ft | 504 kts | 147° |
| 2026-05-07 08:53 | 45.95550 | 6.23987 | 35404 ft | 503 kts | 147° |
| 2026-05-07 08:53 | 45.92710 | 6.26909 | 35976 ft | 502 kts | 147° |
| 2026-05-07 08:53 | 45.89873 | 6.29818 | 36485 ft | 502 kts | 147° |
| 2026-05-07 08:53 | 45.87040 | 6.32725 | 37035 ft | 500 kts | 147° |
| 2026-05-07 08:54 | 45.84223 | 6.35617 | 37743 ft | 495 kts | 147° |
| 2026-05-07 08:54 | 45.81432 | 6.38476 | 38317 ft | 492 kts | 147° |
| 2026-05-07 08:54 | 45.78638 | 6.41327 | 38772 ft | 492 kts | 147° |
| 2026-05-07 08:54 | 45.75855 | 6.44163 | 39218 ft | 492 kts | 147° |
| 2026-05-07 08:55 | 45.73065 | 6.47007 | 39659 ft | 492 kts | 147° |
| 2026-05-07 08:55 | 45.70285 | 6.49839 | 40118 ft | 492 kts | 147° |
| 2026-05-07 08:55 | 45.67493 | 6.52678 | 40608 ft | 491 kts | 147° |
| 2026-05-07 08:55 | 45.64713 | 6.55497 | 41063 ft | 491 kts | 147° |
| 2026-05-07 08:56 | 45.61920 | 6.58328 | 41514 ft | 491 kts | 147° |
| 2026-05-07 08:56 | 45.59139 | 6.61147 | 41960 ft | 491 kts | 147° |
| 2026-05-07 08:56 | 45.56348 | 6.63970 | 42387 ft | 491 kts | 147° |
| 2026-05-07 08:56 | 45.53568 | 6.66779 | 42808 ft | 490 kts | 147° |
| 2026-05-07 08:57 | 45.50779 | 6.69592 | 43216 ft | 491 kts | 147° |
| 2026-05-07 08:57 | 45.47994 | 6.72400 | 43601 ft | 491 kts | 147° |
| 2026-05-07 08:57 | 45.45207 | 6.75204 | 43972 ft | 491 kts | 147° |
| 2026-05-07 08:57 | 45.42415 | 6.78010 | 44331 ft | 491 kts | 147° |
| 2026-05-07 08:58 | 45.39626 | 6.80811 | 44666 ft | 491 kts | 147° |
| 2026-05-07 08:58 | 45.36860 | 6.83586 | 44982 ft | 488 kts | 147° |
| 2026-05-07 08:58 | 45.31201 | 6.89245 | 44970 ft | 504 kts | 147° |
| 2026-05-07 08:59 | 45.25476 | 6.95254 | 44974 ft | 521 kts | 140° |
| 2026-05-07 08:59 | 45.21121 | 7.01309 | 44991 ft | 533 kts | 135° |
| 2026-05-07 09:00 | 45.15783 | 7.08725 | 45002 ft | 541 kts | 138° |
| 2026-05-07 09:00 | 45.10418 | 7.16210 | 44979 ft | 542 kts | 131° |
| 2026-05-07 09:01 | 45.06067 | 7.24932 | 44990 ft | 544 kts | 124° |
| 2026-05-07 09:01 | 45.01731 | 7.33703 | 44991 ft | 544 kts | 127° |
| 2026-05-07 09:02 | 44.97221 | 7.42283 | 44973 ft | 543 kts | 131° |
| 2026-05-07 09:02 | 44.92149 | 7.50189 | 44995 ft | 543 kts | 135° |
| 2026-05-07 09:03 | 44.87044 | 7.58066 | 44999 ft | 545 kts | 133° |
| 2026-05-07 09:03 | 44.81968 | 7.65977 | 44975 ft | 543 kts | 134° |
| 2026-05-07 09:04 | 44.76852 | 7.73815 | 44975 ft | 544 kts | 133° |
| 2026-05-07 09:04 | 44.71757 | 7.81700 | 44974 ft | 544 kts | 134° |
| 2026-05-07 09:05 | 44.66633 | 7.89522 | 44976 ft | 545 kts | 134° |
| 2026-05-07 09:05 | 44.61472 | 7.97447 | 44976 ft | 545 kts | 134° |
| 2026-05-07 09:06 | 44.56369 | 8.05210 | 44976 ft | 545 kts | 134° |
| 2026-05-07 09:06 | 44.51235 | 8.13036 | 44972 ft | 545 kts | 134° |
| 2026-05-07 09:07 | 44.46047 | 8.20895 | 44976 ft | 546 kts | 134° |
| 2026-05-07 09:07 | 44.40929 | 8.28643 | 44953 ft | 546 kts | 134° |
| 2026-05-07 09:08 | 44.35749 | 8.36453 | 44805 ft | 539 kts | 134° |
| 2026-05-07 09:08 | 44.33243 | 8.40224 | 44031 ft | 533 kts | 134° |
| 2026-05-07 09:08 | 44.30736 | 8.43995 | 43321 ft | 524 kts | 134° |
| 2026-05-07 09:09 | 44.28280 | 8.47682 | 42643 ft | 516 kts | 134° |
| 2026-05-07 09:09 | 44.25858 | 8.51314 | 41966 ft | 508 kts | 134° |
| 2026-05-07 09:09 | 44.23463 | 8.54899 | 41299 ft | 500 kts | 135° |
| 2026-05-07 09:09 | 44.21116 | 8.58409 | 40653 ft | 492 kts | 135° |
| 2026-05-07 09:10 | 44.18795 | 8.61876 | 40010 ft | 487 kts | 135° |
| 2026-05-07 09:10 | 44.16489 | 8.65314 | 39368 ft | 486 kts | 135° |
| 2026-05-07 09:10 | 44.14177 | 8.68759 | 38724 ft | 487 kts | 135° |
| 2026-05-07 09:10 | 44.11851 | 8.72223 | 38074 ft | 489 kts | 135° |
| 2026-05-07 09:11 | 44.09500 | 8.75714 | 37415 ft | 505 kts | 135° |
| 2026-05-07 09:11 | 44.07057 | 8.79335 | 36729 ft | 521 kts | 135° |
| 2026-05-07 09:11 | 44.04546 | 8.83059 | 36018 ft | 535 kts | 135° |
| 2026-05-07 09:11 | 44.01969 | 8.86879 | 35285 ft | 547 kts | 135° |
| 2026-05-07 09:12 | 43.99331 | 8.90779 | 34535 ft | 559 kts | 135° |
| 2026-05-07 09:12 | 43.96653 | 8.94731 | 33814 ft | 565 kts | 135° |
| 2026-05-07 09:12 | 43.93946 | 8.98722 | 33061 ft | 569 kts | 135° |
| 2026-05-07 09:12 | 43.91226 | 9.02729 | 32291 ft | 571 kts | 135° |
| 2026-05-07 09:13 | 43.88501 | 9.06736 | 31530 ft | 572 kts | 135° |
| 2026-05-07 09:13 | 43.85773 | 9.10739 | 30770 ft | 572 kts | 135° |
| 2026-05-07 09:13 | 43.83037 | 9.14749 | 30016 ft | 572 kts | 135° |
| 2026-05-07 09:13 | 43.80300 | 9.18723 | 29245 ft | 570 kts | 136° |
| 2026-05-07 09:14 | 43.77332 | 9.22326 | 28491 ft | 560 kts | 143° |
| 2026-05-07 09:14 | 43.74416 | 9.25635 | 27777 ft | 528 kts | 143° |
| 2026-05-07 09:14 | 43.71649 | 9.28772 | 27099 ft | 501 kts | 143° |
| 2026-05-07 09:14 | 43.69025 | 9.31806 | 26453 ft | 486 kts | 142° |
| 2026-05-07 09:15 | 43.66458 | 9.34774 | 25823 ft | 477 kts | 143° |
| 2026-05-07 09:15 | 43.63904 | 9.37686 | 25189 ft | 476 kts | 143° |
| 2026-05-07 09:15 | 43.61339 | 9.40597 | 24555 ft | 475 kts | 143° |
| 2026-05-07 09:15 | 43.58804 | 9.43499 | 23925 ft | 472 kts | 142° |
| 2026-05-07 09:16 | 43.56297 | 9.46375 | 23303 ft | 468 kts | 142° |
| 2026-05-07 09:16 | 43.53806 | 9.49213 | 22690 ft | 462 kts | 143° |
| 2026-05-07 09:16 | 43.51350 | 9.52013 | 22085 ft | 456 kts | 143° |
| 2026-05-07 09:16 | 43.48971 | 9.54866 | 21540 ft | 451 kts | 135° |
| 2026-05-07 09:17 | 43.47299 | 9.58494 | 21189 ft | 450 kts | 112° |
| 2026-05-07 09:17 | 43.46682 | 9.62661 | 20795 ft | 443 kts | 89° |
| 2026-05-07 09:17 | 43.47031 | 9.66811 | 20502 ft | 433 kts | 74° |
| 2026-05-07 09:17 | 43.47932 | 9.70734 | 20228 ft | 427 kts | 61° |
| 2026-05-07 09:18 | 43.49552 | 9.74079 | 19932 ft | 415 kts | 46° |
| 2026-05-07 09:18 | 43.51475 | 9.77005 | 19719 ft | 411 kts | 41° |
| 2026-05-07 09:18 | 43.53439 | 9.79861 | 19515 ft | 411 kts | 43° |
| 2026-05-07 09:18 | 43.55242 | 9.82851 | 18585 ft | 401 kts | 47° |
| 2026-05-07 09:19 | 43.56881 | 9.86002 | 17164 ft | 404 kts | 51° |
| 2026-05-07 09:19 | 43.58482 | 9.89076 | 16372 ft | 396 kts | 49° |
| 2026-05-07 09:19 | 43.60154 | 9.91966 | 16001 ft | 375 kts | 47° |
| 2026-05-07 09:19 | 43.61767 | 9.94713 | 15519 ft | 363 kts | 47° |
| 2026-05-07 09:20 | 43.63302 | 9.97461 | 15037 ft | 357 kts | 49° |
| 2026-05-07 09:20 | 43.64758 | 10.00118 | 14577 ft | 339 kts | 49° |
| 2026-05-07 09:20 | 43.66182 | 10.02614 | 14127 ft | 322 kts | 45° |
| 2026-05-07 09:20 | 43.67851 | 10.04553 | 13702 ft | 309 kts | 31° |
| 2026-05-07 09:21 | 43.69566 | 10.06322 | 13289 ft | 305 kts | 37° |
| 2026-05-07 09:21 | 43.70740 | 10.08729 | 12852 ft | 303 kts | 65° |
| 2026-05-07 09:21 | 43.71093 | 10.11537 | 12517 ft | 295 kts | 91° |
| 2026-05-07 09:21 | 43.70626 | 10.14220 | 12234 ft | 285 kts | 115° |
| 2026-05-07 09:22 | 43.69546 | 10.16473 | 11960 ft | 279 kts | 130° |
| 2026-05-07 09:22 | 43.68066 | 10.18141 | 11554 ft | 275 kts | 158° |
| 2026-05-07 09:22 | 43.66245 | 10.18690 | 11212 ft | 265 kts | 184° |
| 2026-05-07 09:22 | 43.64501 | 10.18121 | 10890 ft | 256 kts | 208° |
| 2026-05-07 09:23 | 43.63044 | 10.16767 | 10613 ft | 251 kts | 219° |
| 2026-05-07 09:23 | 43.61643 | 10.15315 | 10296 ft | 253 kts | 219° |
| 2026-05-07 09:23 | 43.60232 | 10.13869 | 9951 ft | 254 kts | 218° |
| 2026-05-07 09:23 | 43.58817 | 10.12425 | 9610 ft | 253 kts | 218° |
| 2026-05-07 09:24 | 43.57404 | 10.10980 | 9256 ft | 252 kts | 218° |
| 2026-05-07 09:24 | 43.56004 | 10.09549 | 8934 ft | 251 kts | 217° |
| 2026-05-07 09:24 | 43.54613 | 10.08127 | 8613 ft | 246 kts | 217° |
| 2026-05-07 09:24 | 43.53269 | 10.06756 | 8318 ft | 232 kts | 217° |
| 2026-05-07 09:25 | 43.52011 | 10.05474 | 8066 ft | 217 kts | 217° |
| 2026-05-07 09:25 | 43.50833 | 10.04270 | 7831 ft | 206 kts | 217° |
| 2026-05-07 09:25 | 43.49690 | 10.03106 | 7593 ft | 202 kts | 217° |
| 2026-05-07 09:25 | 43.48530 | 10.02044 | 7299 ft | 200 kts | 205° |
| 2026-05-07 09:26 | 43.47162 | 10.01848 | 7022 ft | 200 kts | 172° |
| 2026-05-07 09:26 | 43.45917 | 10.02667 | 6766 ft | 202 kts | 140° |
| 2026-05-07 09:26 | 43.45037 | 10.04156 | 6558 ft | 200 kts | 127° |
| 2026-05-07 09:26 | 43.44205 | 10.05720 | 6218 ft | 204 kts | 128° |
| 2026-05-07 09:27 | 43.43351 | 10.07276 | 5890 ft | 202 kts | 129° |
| 2026-05-07 09:27 | 43.42508 | 10.08767 | 5735 ft | 197 kts | 130° |
| 2026-05-07 09:27 | 43.41095 | 10.11944 | 5179 ft | 200 kts | 92° |
| 2026-05-07 09:28 | 43.41619 | 10.13629 | 5022 ft | 195 kts | 41° |
| 2026-05-07 09:28 | 43.42839 | 10.14327 | 4985 ft | 190 kts | 14° |
| 2026-05-07 09:28 | 43.44138 | 10.14873 | 4773 ft | 201 kts | 19° |
| 2026-05-07 09:28 | 43.45374 | 10.15776 | 4566 ft | 200 kts | 34° |
| 2026-05-07 09:29 | 43.46484 | 10.16916 | 4318 ft | 198 kts | 37° |
| 2026-05-07 09:29 | 43.47584 | 10.18051 | 4042 ft | 196 kts | 37° |
| 2026-05-07 09:29 | 43.48664 | 10.19163 | 3906 ft | 187 kts | 37° |
| 2026-05-07 09:29 | 43.49696 | 10.20211 | 3902 ft | 184 kts | 36° |
| 2026-05-07 09:30 | 43.50742 | 10.21287 | 3905 ft | 189 kts | 36° |
| 2026-05-07 09:30 | 43.51812 | 10.22389 | 3780 ft | 197 kts | 37° |
| 2026-05-07 09:30 | 43.52903 | 10.23505 | 3518 ft | 192 kts | 36° |
| 2026-05-07 09:30 | 43.53951 | 10.24575 | 3258 ft | 178 kts | 36° |
| 2026-05-07 09:31 | 43.54872 | 10.25526 | 3026 ft | 160 kts | 36° |
| 2026-05-07 09:31 | 43.55761 | 10.26440 | 2826 ft | 161 kts | 37° |
| 2026-05-07 09:31 | 43.56663 | 10.27370 | 2617 ft | 163 kts | 37° |
| 2026-05-07 09:31 | 43.57576 | 10.28307 | 2402 ft | 164 kts | 37° |
| 2026-05-07 09:32 | 43.58506 | 10.29262 | 2187 ft | 164 kts | 37° |
| 2026-05-07 09:32 | 43.59412 | 10.30196 | 1969 ft | 165 kts | 37° |
| 2026-05-07 09:32 | 43.60346 | 10.31157 | 1746 ft | 166 kts | 36° |
| 2026-05-07 09:32 | 43.61273 | 10.32114 | 1522 ft | 167 kts | 36° |
| 2026-05-07 09:33 | 43.62192 | 10.33052 | 1307 ft | 165 kts | 35° |
| 2026-05-07 09:33 | 43.63053 | 10.33942 | 1084 ft | 146 kts | 36° |
| 2026-05-07 09:33 | 43.63842 | 10.34758 | 898 ft | 140 kts | 36° |
| 2026-05-07 09:33 | 43.64634 | 10.35575 | 715 ft | 141 kts | 36° |
| 2026-05-07 09:34 | 43.65385 | 10.36347 | 532 ft | 134 kts | 36° |
| 2026-05-07 09:34 | 43.66140 | 10.37120 | 361 ft | 133 kts | 36° |
| 2026-05-07 09:34 | 43.66878 | 10.37879 | 183 ft | 135 kts | 36° |
| 2026-05-07 09:34 | 43.67629 | 10.38651 | 35 ft | 133 kts | 36° |
| 2026-05-07 09:35 | 43.68303 | 10.39358 | 5 ft | 107 kts | 35° |
| 2026-05-07 09:35 | 43.68766 | 10.39828 | 3 ft | 61 kts | 37° |
| 2026-05-07 09:35 | 43.68993 | 10.40063 | 5 ft | 39 kts | 37° |
| 2026-05-07 09:35 | 43.69172 | 10.40249 | 5 ft | 25 kts | 37° |
| 2026-05-07 09:36 | 43.69271 | 10.40298 | 5 ft | 12 kts | 335° |
| 2026-05-07 09:36 | 43.69314 | 10.40228 | 7 ft | 8 kts | 309° |
| 2026-05-07 09:36 | 43.69322 | 10.40215 | 7 ft | 1 kts | 309° |
| 2026-05-07 09:36 | 43.69335 | 10.40191 | 7 ft | 3 kts | 305° |
| 2026-05-07 09:37 | 43.69348 | 10.40168 | 7 ft | 3 kts | 310° |
| 2026-05-07 09:37 | 43.69360 | 10.40148 | 7 ft | 3 kts | 309° |
| 2026-05-07 09:37 | 43.69381 | 10.40115 | 7 ft | 6 kts | 319° |
| 2026-05-07 09:37 | 43.69429 | 10.40095 | 7 ft | 9 kts | 353° |
| 2026-05-07 09:38 | 43.69497 | 10.40083 | 8 ft | 11 kts | 352° |
| 2026-05-07 09:38 | 43.69584 | 10.40067 | 8 ft | 13 kts | 351° |
| 2026-05-07 09:38 | 43.69666 | 10.40056 | 8 ft | 8 kts | 10° |
| 2026-05-07 09:38 | 43.69707 | 10.40082 | 8 ft | 6 kts | 5° |
| 2026-05-07 09:39 | 43.69736 | 10.40088 | 8 ft | 3 kts | 9° |
| 2026-05-07 09:39 | 43.69758 | 10.40093 | 8 ft | 3 kts | 5° |
| 2026-05-07 09:39 | 43.69769 | 10.40095 | 8 ft | 0 kts | 10° |